Time;durP1;ratioP1;P1;durP2;ratioP2;P2;SDS_P1;SDS_P2;PMS_P1;PMS_P2;Temp;Humidity;BMP_temperature;BMP_pressure;BME280_temperature;BME280_humidity;BME280_pressure;Samples;Min_cycle;Max_cycle;Signal;HPM_P1;HPM_P2
2021/05/17 00:01:03;;;;;;;7.75;1.10;;;16.40;96.70;;;;;;5101341;28;20611;-77
2021/05/17 00:03:35;;;;;;;3.40;0.98;;;16.30;96.70;;;;;;5101170;28;20058;-78
2021/05/17 00:06:06;;;;;;;4.38;0.93;;;16.30;96.70;;;;;;5098743;28;20046;-78
2021/05/17 00:08:38;;;;;;;5.03;1.10;;;16.30;96.70;;;;;;5103620;27;20465;-77
2021/05/17 00:11:08;;;;;;;2.85;0.93;;;16.30;96.70;;;;;;5101178;28;20043;-77
2021/05/17 00:13:38;;;;;;;4.07;0.95;;;16.30;96.70;;;;;;5099840;27;20036;-78
2021/05/17 00:16:09;;;;;;;3.63;0.98;;;16.20;96.70;;;;;;5101324;28;20044;-78
2021/05/17 00:18:40;;;;;;;4.30;1.27;;;16.20;96.70;;;;;;5111992;28;20693;-77
2021/05/17 00:21:11;;;;;;;4.55;1.02;;;16.20;96.70;;;;;;5081365;28;20044;-77
2021/05/17 00:23:42;;;;;;;2.72;0.85;;;16.10;96.70;;;;;;5099578;28;20044;-78
2021/05/17 00:26:13;;;;;;;4.78;0.95;;;16.10;96.70;;;;;;5100911;28;20032;-77
2021/05/17 00:28:44;;;;;;;5.05;0.80;;;16.10;96.70;;;;;;5097921;28;20497;-78
2021/05/17 00:31:15;;;;;;;5.47;1.60;;;16.10;96.70;;;;;;5101539;28;20044;-78
2021/05/17 00:33:46;;;;;;;5.15;1.30;;;16.10;96.70;;;;;;5105216;27;20396;-78
2021/05/17 00:36:17;;;;;;;4.68;0.80;;;16.10;96.70;;;;;;5104321;28;20055;-77
2021/05/17 00:38:47;;;;;;;6.90;1.10;;;16.10;96.70;;;;;;5104837;28;20031;-78
2021/05/17 00:41:16;;;;;;;3.70;0.82;;;16.10;96.70;;;;;;5105695;28;20055;-77
2021/05/17 00:43:47;;;;;;;4.30;0.90;;;16.10;96.70;;;;;;5102916;28;20044;-77
2021/05/17 00:46:52;;;;;;;6.93;1.35;;;16.10;96.70;;;;;;5107099;28;20536;-77
2021/05/17 00:49:21;;;;;;;5.30;1.13;;;16.10;96.70;;;;;;5102543;28;20050;-77
2021/05/17 00:52:12;;;;;;;3.50;1.10;;;16.10;96.70;;;;;;5088023;28;20074;-77
2021/05/17 00:54:42;;;;;;;7.28;1.00;;;16.10;96.70;;;;;;5102503;27;20052;-78
2021/05/17 00:57:14;;;;;;;6.80;1.10;;;16.20;96.70;;;;;;5104313;28;20051;-77
2021/05/17 00:59:43;;;;;;;6.80;1.10;;;16.20;96.70;;;;;;5088200;28;20454;-77
2021/05/17 01:02:13;;;;;;;4.07;1.20;;;16.20;96.70;;;;;;5102388;28;20051;-77
2021/05/17 01:04:58;;;;;;;3.45;1.00;;;16.10;96.70;;;;;;5102941;28;20078;-78
2021/05/17 01:07:30;;;;;;;4.05;1.02;;;16.10;96.70;;;;;;5103268;28;20055;-78
2021/05/17 01:10:04;;;;;;;3.78;0.95;;;16.20;96.70;;;;;;5091864;28;20044;-78
2021/05/17 01:12:36;;;;;;;6.75;1.50;;;16.20;96.70;;;;;;5104926;28;20035;-78
2021/05/17 01:15:08;;;;;;;2.55;0.82;;;16.20;96.70;;;;;;5106597;27;20513;-78
2021/05/17 01:17:41;;;;;;;4.57;1.10;;;16.30;96.70;;;;;;5113102;27;20034;-77
2021/05/17 01:20:13;;;;;;;5.78;0.90;;;16.30;96.70;;;;;;5106700;28;20443;-77
2021/05/17 01:25:23;;;;;;;7.35;1.25;;;16.30;96.70;;;;;;5104746;28;20097;-77
2021/05/17 01:27:57;;;;;;;3.38;0.75;;;16.20;96.70;;;;;;5097772;28;20501;-77
2021/05/17 01:30:28;;;;;;;4.65;0.90;;;16.20;96.70;;;;;;5083449;28;20493;-77
2021/05/17 01:32:59;;;;;;;6.35;1.05;;;16.30;96.70;;;;;;5098993;28;20046;-77
2021/05/17 01:35:29;;;;;;;2.20;0.85;;;16.30;96.70;;;;;;5101841;27;20043;-77
2021/05/17 01:38:00;;;;;;;5.00;1.10;;;16.30;96.70;;;;;;5097937;28;20401;-77
2021/05/17 01:40:33;;;;;;;2.90;0.82;;;16.30;96.70;;;;;;5084820;28;20054;-77
2021/05/17 01:43:04;;;;;;;2.60;0.98;;;16.30;96.70;;;;;;5102388;28;20062;-77
2021/05/17 01:45:42;;;;;;;4.70;1.17;;;16.30;96.70;;;;;;5102997;28;20067;-77
2021/05/17 01:48:14;;;;;;;3.35;0.90;;;16.30;96.70;;;;;;5105837;28;20400;-77
2021/05/17 01:50:44;;;;;;;3.03;0.90;;;16.30;96.70;;;;;;5103256;28;20130;-77
2021/05/17 01:53:17;;;;;;;6.10;1.17;;;16.30;96.70;;;;;;5103107;28;20130;-77
2021/05/17 01:55:50;;;;;;;5.95;1.40;;;16.20;96.70;;;;;;5102240;27;20074;-77
2021/05/17 01:58:21;;;;;;;7.05;1.10;;;16.20;96.70;;;;;;5104479;28;20097;-77
2021/05/17 02:00:53;;;;;;;9.25;1.40;;;16.20;96.70;;;;;;5101213;28;20175;-77
2021/05/17 02:03:22;;;;;;;4.95;1.20;;;16.20;96.70;;;;;;5103823;28;20035;-77
2021/05/17 02:05:53;;;;;;;6.32;1.92;;;16.20;96.70;;;;;;5084419;28;20044;-77
2021/05/17 02:08:24;;;;;;;4.57;1.02;;;16.20;96.70;;;;;;5111561;27;20119;-77
2021/05/17 02:11:00;;;;;;;2.30;0.80;;;16.10;96.70;;;;;;5103073;28;20046;-77
2021/05/17 02:13:37;;;;;;;3.88;1.00;;;16.20;96.70;;;;;;5097747;27;20032;-77
2021/05/17 02:16:08;;;;;;;4.53;0.90;;;16.10;96.70;;;;;;5101322;28;20054;-78
2021/05/17 02:18:38;;;;;;;8.40;1.10;;;16.10;96.70;;;;;;5088382;28;20412;-77
2021/05/17 02:21:09;;;;;;;5.75;1.00;;;16.10;96.70;;;;;;5086445;28;20089;-77
2021/05/17 02:23:40;;;;;;;6.72;1.50;;;16.10;96.70;;;;;;5100559;28;20036;-77
2021/05/17 02:26:13;;;;;;;3.33;0.88;;;16.10;96.70;;;;;;5103624;28;20126;-78
2021/05/17 02:28:48;;;;;;;7.07;1.00;;;16.10;96.70;;;;;;5102966;28;20088;-77
2021/05/17 02:31:18;;;;;;;3.47;1.10;;;16.10;96.70;;;;;;5103759;28;20039;-78
2021/05/17 02:33:49;;;;;;;3.70;1.55;;;16.10;96.70;;;;;;5102504;28;20050;-77
2021/05/17 02:36:20;;;;;;;5.28;1.00;;;16.10;96.70;;;;;;5086080;28;20035;-77
2021/05/17 02:38:51;;;;;;;7.70;1.25;;;16.10;96.70;;;;;;5088088;28;20044;-77
2021/05/17 02:41:24;;;;;;;3.67;1.13;;;16.10;96.70;;;;;;5101308;28;20056;-77
2021/05/17 02:43:58;;;;;;;5.75;1.13;;;16.20;96.70;;;;;;5085189;28;20043;-77
2021/05/17 02:46:29;;;;;;;5.97;1.20;;;16.30;96.70;;;;;;5086190;28;20073;-77
2021/05/17 02:48:59;;;;;;;7.50;1.65;;;16.40;96.70;;;;;;5100329;28;20078;-77
2021/05/17 02:51:35;;;;;;;5.10;1.25;;;16.40;96.70;;;;;;5103168;28;20047;-78
2021/05/17 02:54:29;;;;;;;9.77;1.88;;;16.50;96.70;;;;;;5101676;28;20047;-78
2021/05/17 02:57:13;;;;;;;6.55;1.30;;;16.50;96.70;;;;;;5102063;28;20039;-78
2021/05/17 03:00:09;;;;;;;8.30;1.80;;;16.50;96.70;;;;;;5102740;28;20298;-77
2021/05/17 03:03:02;;;;;;;4.63;1.38;;;16.50;96.70;;;;;;5100160;28;20408;-78
2021/05/17 03:06:04;;;;;;;10.90;1.42;;;16.50;96.70;;;;;;5100239;28;20043;-77
2021/05/17 03:08:49;;;;;;;5.13;1.52;;;16.50;96.70;;;;;;5097516;28;20495;-78
2021/05/17 03:11:26;;;;;;;7.50;1.63;;;16.40;96.70;;;;;;5104229;28;20065;-78
2021/05/17 03:14:08;;;;;;;8.48;1.63;;;16.40;96.70;;;;;;5087057;27;20031;-78
2021/05/17 03:16:42;;;;;;;5.40;1.02;;;16.40;96.70;;;;;;5100615;28;20389;-78
2021/05/17 03:19:14;;;;;;;9.10;2.58;;;16.30;96.70;;;;;;5095724;28;20152;-78
2021/05/17 03:21:46;;;;;;;7.63;1.38;;;16.30;96.70;;;;;;5102845;28;20051;-78
2021/05/17 03:24:17;;;;;;;6.72;1.20;;;16.30;96.70;;;;;;5102910;27;20039;-77
2021/05/17 03:26:49;;;;;;;6.78;1.35;;;16.30;96.70;;;;;;5096288;28;20081;-78
2021/05/17 03:29:25;;;;;;;7.53;1.20;;;16.30;96.70;;;;;;5096871;28;20171;-79
2021/05/17 03:31:58;;;;;;;;;;;16.30;96.70;;;;;;5095891;28;20043;-77
2021/05/17 03:34:29;;;;;;;3.38;0.77;;;16.30;96.70;;;;;;5072329;28;19927;-77
2021/05/17 03:36:58;;;;;;;7.78;1.23;;;16.30;96.70;;;;;;5083229;28;20098;-77
2021/05/17 03:39:27;;;;;;;6.28;1.25;;;16.30;96.70;;;;;;5103020;28;20047;-77
2021/05/17 03:41:57;;;;;;;5.28;1.08;;;16.20;96.70;;;;;;5101248;28;20695;-77
2021/05/17 03:44:27;;;;;;;8.60;1.98;;;16.20;96.70;;;;;;5102969;28;20085;-77
2021/05/17 03:46:56;;;;;;;6.72;1.20;;;16.20;96.70;;;;;;5095509;28;20054;-78
2021/05/17 03:49:27;;;;;;;6.50;1.15;;;16.20;96.70;;;;;;5103307;28;20062;-78
2021/05/17 03:51:57;;;;;;;4.15;0.98;;;16.10;96.70;;;;;;5101516;28;20600;-78
2021/05/17 03:54:27;;;;;;;4.85;1.23;;;16.10;96.70;;;;;;5099635;28;20047;-78
2021/05/17 03:56:58;;;;;;;4.47;0.82;;;16.10;96.70;;;;;;5099197;28;20051;-77
2021/05/17 03:59:31;;;;;;;2.88;0.60;;;16.10;96.70;;;;;;5083849;28;20048;-77
2021/05/17 04:02:01;;;;;;;9.43;2.53;;;16.10;96.70;;;;;;5080098;28;20095;-78
2021/05/17 04:04:36;;;;;;;7.05;1.23;;;16.10;96.70;;;;;;5100173;28;20733;-78
2021/05/17 04:07:28;;;;;;;8.10;1.13;;;16.10;96.70;;;;;;5102248;28;20040;-78
2021/05/17 04:15:25;;;;;;;4.35;0.98;;;16.00;96.70;;;;;;5103124;28;19923;-79
2021/05/17 04:17:54;;;;;;;10.23;1.92;;;16.00;96.70;;;;;;5100083;28;20035;-78
2021/05/17 04:20:23;;;;;;;8.52;1.35;;;16.00;96.70;;;;;;5098131;28;20043;-79
2021/05/17 04:22:52;;;;;;;7.03;1.20;;;16.00;96.70;;;;;;5099388;28;20226;-78
2021/05/17 04:25:24;;;;;;;6.82;1.75;;;16.00;96.70;;;;;;5098386;28;20031;-78
2021/05/17 04:27:54;;;;;;;12.82;1.30;;;16.00;96.70;;;;;;5100927;28;20487;-78
2021/05/17 04:30:25;;;;;;;5.45;1.17;;;16.00;96.70;;;;;;5100905;28;20052;-78
2021/05/17 04:32:55;;;;;;;8.65;1.98;;;16.00;96.70;;;;;;5103459;28;20382;-78
2021/05/17 04:35:23;;;;;;;8.15;1.35;;;16.00;96.70;;;;;;5100538;28;20040;-79
2021/05/17 04:37:52;;;;;;;7.30;1.70;;;16.10;96.70;;;;;;5085106;28;20074;-79
2021/05/17 04:40:20;;;;;;;7.20;1.45;;;16.10;96.70;;;;;;5095428;28;20039;-79
2021/05/17 04:42:49;;;;;;;9.80;1.60;;;16.10;96.70;;;;;;5099098;28;20077;-79
2021/05/17 04:45:19;;;;;;;10.80;2.05;;;16.10;96.70;;;;;;5098235;28;20404;-78
2021/05/17 04:47:49;;;;;;;7.55;1.60;;;16.10;96.70;;;;;;5092805;28;20043;-78
2021/05/17 04:50:18;;;;;;;10.80;2.55;;;16.20;96.70;;;;;;5099666;28;20040;-78
2021/05/17 04:52:46;;;;;;;8.85;1.88;;;16.20;96.70;;;;;;5100311;28;20070;-78
2021/05/17 04:55:16;;;;;;;9.20;1.58;;;16.20;96.70;;;;;;5102582;28;20050;-79
2021/05/17 04:57:45;;;;;;;11.50;2.60;;;16.30;96.70;;;;;;5083010;28;20179;-78
2021/05/17 05:00:14;;;;;;;13.68;1.83;;;16.30;96.70;;;;;;5100776;28;20050;-78
2021/05/17 05:02:43;;;;;;;7.88;1.77;;;16.30;96.70;;;;;;5080108;28;20617;-79
2021/05/17 05:05:14;;;;;;;11.55;2.15;;;16.40;96.70;;;;;;5102089;28;20047;-78
2021/05/17 05:07:42;;;;;;;9.82;1.52;;;16.40;96.70;;;;;;5100168;28;20051;-79
2021/05/17 05:10:11;;;;;;;6.95;1.50;;;16.40;96.70;;;;;;5095228;28;20032;-79
2021/05/17 05:12:39;;;;;;;10.70;2.28;;;16.50;96.70;;;;;;5080709;28;20052;-78
2021/05/17 05:15:09;;;;;;;14.80;1.92;;;16.50;96.70;;;;;;5104882;28;20431;-79
2021/05/17 05:17:37;;;;;;;10.68;1.92;;;16.50;96.70;;;;;;5101982;28;20540;-79
2021/05/17 05:20:07;;;;;;;11.25;2.17;;;16.40;96.70;;;;;;5102742;28;20047;-78
2021/05/17 05:22:36;;;;;;;17.08;2.53;;;16.40;96.70;;;;;;5101373;28;20443;-79
2021/05/17 05:25:07;;;;;;;19.27;3.10;;;16.40;96.70;;;;;;5087778;28;20100;-79
2021/05/17 05:27:39;;;;;;;12.35;2.60;;;16.30;96.70;;;;;;5103216;28;20113;-79
2021/05/17 05:32:49;;;;;;;13.52;2.33;;;16.30;96.70;;;;;;5102407;28;20675;-79
2021/05/17 05:35:18;;;;;;;19.15;2.80;;;16.30;96.70;;;;;;5105023;28;20078;-79
2021/05/17 05:37:47;;;;;;;14.68;2.35;;;16.30;96.70;;;;;;5099078;28;20044;-79
2021/05/17 05:40:16;;;;;;;14.50;3.03;;;16.30;96.70;;;;;;5105693;28;20040;-79
2021/05/17 05:42:45;;;;;;;15.40;2.75;;;16.30;96.70;;;;;;5084558;28;20036;-79
2021/05/17 05:45:13;;;;;;;18.88;3.55;;;16.30;96.70;;;;;;5104833;28;20044;-79
2021/05/17 05:47:42;;;;;;;19.80;3.00;;;16.30;96.70;;;;;;5103878;28;20027;-79
2021/05/17 05:50:12;;;;;;;15.88;2.80;;;16.20;96.70;;;;;;5103963;28;20509;-80
2021/05/17 05:52:40;;;;;;;12.88;2.83;;;16.30;96.70;;;;;;5101095;28;20397;-79
2021/05/17 05:55:11;;;;;;;14.90;2.85;;;16.20;96.70;;;;;;5101331;28;20143;-79
2021/05/17 05:57:43;;;;;;;17.45;2.90;;;16.20;96.70;;;;;;5103315;28;20069;-78
2021/05/17 06:00:14;;;;;;;13.02;2.53;;;16.30;96.70;;;;;;5103850;28;20050;-77
2021/05/17 06:02:43;;;;;;;16.40;3.08;;;16.30;96.70;;;;;;5097967;28;20052;-79
2021/05/17 06:05:12;;;;;;;9.70;2.67;;;16.30;96.70;;;;;;5091962;28;20582;-78
2021/05/17 06:07:40;;;;;;;14.55;3.28;;;16.30;96.70;;;;;;5105224;28;20040;-78
2021/05/17 06:10:11;;;;;;;29.60;4.68;;;16.40;96.70;;;;;;5104412;28;20606;-78
2021/05/17 06:12:40;;;;;;;14.52;3.08;;;16.40;96.70;;;;;;5105580;28;20092;-79
2021/05/17 06:15:10;;;;;;;13.68;2.33;;;16.50;96.70;;;;;;5100764;27;20113;-78
2021/05/17 06:17:39;;;;;;;19.63;3.05;;;16.60;96.70;;;;;;5104283;28;20054;-78
2021/05/17 06:20:09;;;;;;;19.92;3.10;;;16.60;96.70;;;;;;5103424;27;20089;-79
2021/05/17 06:22:38;;;;;;;19.75;3.47;;;16.70;96.70;;;;;;5102476;28;20222;-78
2021/05/17 06:25:10;;;;;;;20.42;3.20;;;16.70;96.70;;;;;;5101216;28;20507;-79
2021/05/17 06:27:40;;;;;;;14.48;2.67;;;16.70;96.70;;;;;;5102487;28;20272;-78
2021/05/17 06:30:11;;;;;;;17.55;3.13;;;16.60;96.70;;;;;;5080515;28;20051;-79
2021/05/17 06:32:40;;;;;;;17.17;2.83;;;16.60;96.70;;;;;;5103039;28;20461;-78
2021/05/17 06:35:15;;;;;;;18.67;3.58;;;16.60;96.70;;;;;;5106077;27;20035;-78
2021/05/17 06:37:44;;;;;;;14.48;2.20;;;16.60;96.70;;;;;;5105615;28;20481;-78
2021/05/17 06:40:14;;;;;;;18.20;3.13;;;16.60;96.70;;;;;;5084237;28;20048;-78
2021/05/17 06:42:43;;;;;;;14.68;3.03;;;16.60;96.70;;;;;;5103902;28;21716;-78
2021/05/17 06:45:12;;;;;;;15.73;3.53;;;16.60;96.70;;;;;;5101393;28;20146;-79
2021/05/17 06:47:42;;;;;;;17.52;3.78;;;16.60;96.70;;;;;;5105413;28;20127;-78
2021/05/17 06:50:12;;;;;;;15.23;2.88;;;16.60;96.70;;;;;;5102727;28;20036;-78
2021/05/17 06:52:41;;;;;;;13.07;2.83;;;16.60;96.70;;;;;;5085069;28;20039;-78
2021/05/17 06:55:16;;;;;;;18.27;3.50;;;16.70;96.70;;;;;;5096518;28;20105;-78
2021/05/17 07:00:31;;;;;;;17.55;2.75;;;16.70;96.70;;;;;;5097296;28;20044;-78
2021/05/17 07:03:02;;;;;;;16.85;3.00;;;16.70;96.70;;;;;;5093019;28;20113;-78
2021/05/17 07:05:31;;;;;;;15.40;2.70;;;16.80;96.70;;;;;;5081430;28;20051;-78
2021/05/17 07:13:21;;;;;;;19.17;3.40;;;17.00;96.70;;;;;;5099673;28;20510;-78
2021/05/17 07:15:50;;;;;;;16.33;2.92;;;17.10;96.70;;;;;;5102818;28;20047;-78
2021/05/17 07:18:18;;;;;;;13.85;2.97;;;17.10;96.70;;;;;;5097796;28;20512;-78
2021/05/17 07:26:06;;;;;;;12.23;2.85;;;17.10;96.70;;;;;;5096759;28;20278;-79
2021/05/17 07:28:36;;;;;;;10.98;2.30;;;17.10;96.70;;;;;;5102587;28;20625;-78
2021/05/17 07:31:07;;;;;;;10.27;2.40;;;17.00;96.70;;;;;;5100944;28;20497;-78
2021/05/17 07:33:36;;;;;;;12.77;3.33;;;17.00;96.70;;;;;;5094485;28;20138;-79
2021/05/17 07:36:06;;;;;;;13.45;2.42;;;17.10;96.70;;;;;;5091970;28;20040;-79
2021/05/17 07:38:35;;;;;;;13.95;2.58;;;17.20;96.70;;;;;;5099683;28;20504;-78
2021/05/17 07:41:03;;;;;;;13.63;3.13;;;17.30;96.70;;;;;;5099341;28;20040;-78
2021/05/17 07:43:32;;;;;;;15.32;3.45;;;17.40;96.70;;;;;;5092723;28;20556;-78
2021/05/17 07:46:01;;;;;;;8.25;2.72;;;17.40;96.70;;;;;;5100421;28;20035;-79
2021/05/17 07:48:30;;;;;;;14.18;2.63;;;17.50;96.70;;;;;;5099324;28;20047;-78
2021/05/17 07:50:58;;;;;;;14.15;2.63;;;17.50;96.70;;;;;;5100011;28;20055;-79
2021/05/17 07:53:29;;;;;;;14.68;2.50;;;17.70;96.70;;;;;;5092800;28;20497;-79
2021/05/17 07:55:57;;;;;;;10.60;2.65;;;17.70;96.70;;;;;;5100169;28;20630;-78
2021/05/17 07:58:26;;;;;;;10.80;2.30;;;17.80;96.70;;;;;;5100743;28;20036;-78
2021/05/17 08:00:54;;;;;;;12.15;2.65;;;17.90;96.70;;;;;;5093418;28;20417;-79
2021/05/17 08:03:24;;;;;;;14.55;3.10;;;17.80;96.70;;;;;;5103118;28;20440;-79
2021/05/17 08:06:00;;;;;;;12.73;2.90;;;17.70;96.70;;;;;;5100887;28;20131;-79
2021/05/17 08:08:28;;;;;;;14.27;2.88;;;17.70;96.70;;;;;;5101853;28;20554;-79
2021/05/17 08:10:58;;;;;;;11.30;2.55;;;17.70;96.70;;;;;;5100906;28;20086;-78
2021/05/17 08:13:26;;;;;;;9.73;3.08;;;17.60;96.70;;;;;;5085745;28;20035;-78
2021/05/17 08:16:15;;;;;;;16.80;2.67;;;17.60;96.70;;;;;;5104440;27;20048;-79
2021/05/17 08:18:45;;;;;;;12.95;2.88;;;17.70;96.70;;;;;;5081310;28;20044;-79
2021/05/17 08:21:13;;;;;;;9.10;2.67;;;17.60;96.70;;;;;;5104136;28;20239;-77
2021/05/17 08:23:42;;;;;;;15.10;2.63;;;17.80;96.70;;;;;;5091330;28;20551;-80
2021/05/17 08:26:11;;;;;;;16.55;2.95;;;18.00;96.70;;;;;;5095886;28;20032;-81
2021/05/17 08:28:41;;;;;;;18.63;4.00;;;18.00;96.70;;;;;;5102110;28;20406;-80
2021/05/17 08:31:14;;;;;;;11.30;2.60;;;18.10;96.70;;;;;;5099256;28;20044;-80
2021/05/17 08:33:44;;;;;;;15.40;2.78;;;18.20;96.70;;;;;;5100466;28;20051;-78
2021/05/17 08:36:12;;;;;;;24.52;4.68;;;18.30;96.70;;;;;;5101925;28;20092;-80
2021/05/17 08:38:41;;;;;;;13.77;2.33;;;18.40;96.70;;;;;;5097631;28;20584;-78
2021/05/17 08:41:13;;;;;;;7.75;2.28;;;18.20;96.70;;;;;;5101603;28;20535;-79
2021/05/17 08:43:43;;;;;;;18.95;2.97;;;18.10;96.70;;;;;;5098960;28;20171;-79
2021/05/17 08:46:12;;;;;;;16.25;2.88;;;18.20;96.70;;;;;;5098893;28;20553;-80
2021/05/17 08:48:48;;;;;;;12.98;2.58;;;18.20;96.70;;;;;;5100338;28;20050;-79
2021/05/17 08:51:22;;;;;;;18.33;2.53;;;18.20;96.70;;;;;;5105422;28;20035;-80
2021/05/17 08:53:53;;;;;;;16.20;2.72;;;18.10;96.70;;;;;;5104070;28;20058;-80
2021/05/17 08:56:22;;;;;;;15.02;2.80;;;18.10;96.70;;;;;;5105109;28;20062;-80
2021/05/17 08:58:55;;;;;;;11.98;2.60;;;18.10;96.70;;;;;;5100646;28;20063;-79
2021/05/17 09:01:23;;;;;;;15.80;2.90;;;18.20;96.70;;;;;;5105777;28;20050;-80
2021/05/17 09:03:56;;;;;;;15.68;3.08;;;18.30;96.70;;;;;;5104211;28;20918;-79
2021/05/17 09:06:37;;;;;;;10.68;2.55;;;18.50;96.70;;;;;;5104086;28;20528;-76
2021/05/17 09:09:21;;;;;;;14.73;3.05;;;18.50;96.70;;;;;;5102537;28;20046;-79
2021/05/17 09:11:50;;;;;;;11.60;2.63;;;18.70;96.70;;;;;;5093154;28;20048;-80
2021/05/17 09:14:20;;;;;;;15.07;2.60;;;18.60;96.70;;;;;;5106538;27;20039;-79
2021/05/17 09:16:51;;;;;;;16.40;3.67;;;18.60;96.70;;;;;;5099144;28;20036;-79
2021/05/17 09:19:21;;;;;;;15.48;3.17;;;18.80;96.70;;;;;;5097883;28;20042;-80
2021/05/17 09:22:09;;;;;;;10.35;2.30;;;18.80;96.70;;;;;;5086083;28;20387;-79
2021/05/17 09:24:49;;;;;;;16.48;2.95;;;18.70;96.70;;;;;;5101531;28;20036;-80
2021/05/17 09:27:20;;;;;;;18.80;3.13;;;18.80;96.70;;;;;;5096887;28;20048;-80
2021/05/17 09:29:50;;;;;;;15.00;2.67;;;18.90;96.70;;;;;;5105213;28;20039;-80
2021/05/17 09:32:22;;;;;;;13.85;2.67;;;18.90;96.70;;;;;;5101126;28;20047;-80
2021/05/17 09:35:06;;;;;;;12.40;2.30;;;19.00;96.70;;;;;;5103731;28;20039;-80
2021/05/17 09:37:47;;;;;;;10.95;2.50;;;18.80;96.70;;;;;;5084139;28;20520;-80
2021/05/17 09:40:18;;;;;;;19.00;3.97;;;19.00;96.70;;;;;;5104403;28;20047;-79
2021/05/17 09:42:59;;;;;;;11.25;2.30;;;19.10;96.70;;;;;;5099116;28;20050;-80
2021/05/17 09:45:42;;;;;;;15.73;2.95;;;19.00;96.70;;;;;;5105743;28;20042;-79
2021/05/17 09:48:12;;;;;;;12.93;2.50;;;19.20;96.70;;;;;;5104278;28;20039;-79
2021/05/17 09:51:05;;;;;;;11.82;3.05;;;19.30;96.70;;;;;;5117366;27;20139;-80
2021/05/17 09:53:36;;;;;;;13.82;3.30;;;19.50;96.70;;;;;;5103362;28;20048;-80
2021/05/17 09:56:09;;;;;;;25.20;4.35;;;19.60;96.70;;;;;;5103671;28;20048;-80
2021/05/17 09:58:39;;;;;;;12.88;3.53;;;19.60;96.70;;;;;;5086271;28;20051;-79
2021/05/17 10:01:10;;;;;;;17.30;3.15;;;19.60;96.70;;;;;;5081550;28;20044;-80
2021/05/17 10:03:40;;;;;;;11.02;2.45;;;19.60;96.70;;;;;;5097279;28;20908;-80
2021/05/17 10:06:10;;;;;;;15.68;2.47;;;19.70;96.70;;;;;;5103467;28;20058;-79
2021/05/17 10:08:40;;;;;;;16.58;2.85;;;19.90;96.70;;;;;;5105158;28;20101;-80
2021/05/17 10:11:09;;;;;;;11.45;2.70;;;19.80;96.70;;;;;;5100832;28;20582;-80
2021/05/17 10:13:37;;;;;;;12.95;2.40;;;19.50;96.70;;;;;;5111088;27;20047;-79
2021/05/17 10:16:08;;;;;;;11.13;2.55;;;19.30;96.70;;;;;;5087007;28;20079;-80
2021/05/17 10:18:37;;;;;;;14.27;2.67;;;19.40;96.70;;;;;;5096422;28;20039;-81
2021/05/17 10:21:08;;;;;;;14.70;2.38;;;19.40;96.70;;;;;;5086112;28;20056;-79
2021/05/17 10:23:37;;;;;;;10.30;2.20;;;19.40;96.70;;;;;;5103067;28;20055;-79
2021/05/17 10:26:08;;;;;;;13.20;2.65;;;19.30;96.70;;;;;;5102437;28;20459;-81
2021/05/17 10:28:38;;;;;;;15.10;2.72;;;19.50;96.70;;;;;;5102049;28;20576;-81
2021/05/17 10:31:13;;;;;;;12.15;2.10;;;19.70;96.70;;;;;;5102902;28;20054;-80
2021/05/17 10:33:43;;;;;;;11.10;2.33;;;19.90;96.70;;;;;;5085759;28;20452;-79
2021/05/17 10:36:11;;;;;;;14.10;2.65;;;20.10;96.70;;;;;;5103572;28;20539;-80
2021/05/17 10:38:48;;;;;;;12.25;2.47;;;20.20;96.70;;;;;;5098908;28;20043;-80
2021/05/17 10:41:32;;;;;;;13.40;2.53;;;20.10;96.70;;;;;;5100547;28;20055;-79
2021/05/17 10:44:11;;;;;;;12.00;2.80;;;20.10;96.70;;;;;;5097196;28;20066;-79
2021/05/17 10:46:41;;;;;;;11.88;2.13;;;20.00;96.70;;;;;;5104556;28;20058;-79
2021/05/17 10:49:29;;;;;;;10.40;2.25;;;20.00;96.70;;;;;;5099258;28;20109;-80
2021/05/17 10:52:22;;;;;;;13.18;3.78;;;20.20;96.70;;;;;;5100192;28;20032;-80
2021/05/17 10:55:07;;;;;;;12.38;2.88;;;20.50;96.70;;;;;;5102373;28;20407;-80
2021/05/17 10:57:53;;;;;;;10.80;2.47;;;20.60;96.70;;;;;;5095578;28;20491;-80
2021/05/17 11:00:28;;;;;;;14.43;2.78;;;20.70;96.70;;;;;;5097112;28;20040;-80
2021/05/17 11:03:14;;;;;;;12.35;2.78;;;20.50;96.70;;;;;;5100766;28;20580;-79
2021/05/17 11:05:44;;;;;;;15.70;3.45;;;20.30;96.70;;;;;;5099440;28;20131;-80
2021/05/17 11:08:15;;;;;;;12.60;2.22;;;20.30;96.70;;;;;;5102055;28;20032;-79
2021/05/17 11:10:50;;;;;;;13.68;2.60;;;20.30;96.70;;;;;;5103107;28;20402;-80
2021/05/17 11:13:21;;;;;;;16.77;2.85;;;20.30;96.70;;;;;;5100965;28;20130;-81
2021/05/17 11:16:00;;;;;;;12.15;3.28;;;20.50;96.70;;;;;;5102980;28;20767;-79
2021/05/17 11:18:42;;;;;;;13.05;2.38;;;20.40;96.70;;;;;;5097297;28;20134;-80
2021/05/17 11:21:23;;;;;;;9.00;1.50;;;20.20;96.70;;;;;;5103338;28;20134;-79
2021/05/17 11:23:54;;;;;;;13.88;2.85;;;20.00;96.70;;;;;;5082980;28;20047;-79
2021/05/17 11:26:25;;;;;;;13.07;2.33;;;20.00;96.70;;;;;;5103087;28;20046;-79
2021/05/17 11:29:04;;;;;;;13.00;2.22;;;20.20;96.70;;;;;;5098992;28;20394;-79
2021/05/17 11:31:44;;;;;;;13.57;2.60;;;20.30;96.70;;;;;;5084027;28;20042;-77
2021/05/17 11:34:21;;;;;;;12.15;2.33;;;20.30;96.70;;;;;;5100910;28;20054;-77
2021/05/17 11:37:07;;;;;;;8.68;2.42;;;20.10;96.70;;;;;;5091815;28;20074;-78
2021/05/17 11:39:37;;;;;;;15.75;2.70;;;20.40;96.70;;;;;;5099669;28;20528;-78
2021/05/17 11:42:09;;;;;;;9.85;2.20;;;20.40;96.70;;;;;;5101651;28;20142;-80
2021/05/17 11:44:41;;;;;;;15.57;2.88;;;20.50;96.70;;;;;;5101079;28;20055;-81
2021/05/17 11:47:12;;;;;;;13.07;2.30;;;20.60;96.70;;;;;;5098214;28;20413;-78
2021/05/17 11:49:46;;;;;;;13.90;2.42;;;20.50;96.70;;;;;;5101286;28;20048;-78
2021/05/17 11:52:19;;;;;;;13.95;2.53;;;20.50;96.30;;;;;;5096021;28;20078;-78
2021/05/17 11:54:50;;;;;;;10.00;2.40;;;20.60;94.80;;;;;;5095763;28;20461;-79
2021/05/17 11:57:25;;;;;;;14.38;2.00;;;20.70;94.30;;;;;;5099605;28;20050;-79
2021/05/17 12:00:00;;;;;;;10.90;2.30;;;20.50;94.40;;;;;;5101793;28;20109;-80
2021/05/17 12:02:43;;;;;;;12.82;2.70;;;20.40;95.00;;;;;;5098632;28;20139;-78
2021/05/17 12:05:13;;;;;;;10.35;1.70;;;20.60;95.00;;;;;;5100526;28;20300;-77
2021/05/17 12:07:45;;;;;;;9.00;2.20;;;20.60;92.10;;;;;;5101432;28;20039;-79
2021/05/17 12:10:14;;;;;;;12.05;2.53;;;20.70;93.90;;;;;;5098453;28;20036;-80
2021/05/17 12:12:44;;;;;;;8.77;2.20;;;20.90;93.90;;;;;;5097826;28;20039;-79
2021/05/17 12:15:17;;;;;;;10.63;1.98;;;20.90;94.00;;;;;;5104218;27;20617;-78
2021/05/17 12:17:51;;;;;;;15.15;2.55;;;20.80;92.80;;;;;;5082655;28;20074;-78
2021/05/17 12:20:26;;;;;;;9.57;1.90;;;20.80;92.90;;;;;;5099841;28;20509;-78
2021/05/17 12:22:57;;;;;;;11.48;2.22;;;20.70;92.40;;;;;;5101200;28;20575;-76
2021/05/17 12:25:26;;;;;;;16.27;3.28;;;20.50;92.90;;;;;;5096153;28;20040;-78
2021/05/17 12:27:56;;;;;;;15.32;2.60;;;20.50;93.00;;;;;;5099759;28;20071;-78
2021/05/17 12:30:25;;;;;;;9.48;2.30;;;20.40;93.10;;;;;;5099565;28;20043;-79
2021/05/17 12:32:55;;;;;;;9.27;2.10;;;20.70;93.40;;;;;;5102551;28;20067;-79
2021/05/17 12:35:27;;;;;;;10.77;2.53;;;20.80;92.30;;;;;;5095284;28;20139;-78
2021/05/17 12:37:58;;;;;;;11.68;2.15;;;20.60;93.20;;;;;;5098647;28;20101;-79
2021/05/17 12:40:32;;;;;;;11.63;2.15;;;20.70;93.30;;;;;;5081463;28;20113;-78
2021/05/17 12:43:11;;;;;;;13.70;1.85;;;20.60;94.10;;;;;;5080674;28;20055;-79
2021/05/17 12:45:42;;;;;;;8.82;1.70;;;20.40;93.10;;;;;;5098756;28;20039;-78
2021/05/17 12:48:24;;;;;;;9.45;2.15;;;20.30;93.90;;;;;;5090113;28;20074;-78
2021/05/17 12:50:59;;;;;;;11.48;2.42;;;20.10;94.50;;;;;;5100536;28;20036;-80
2021/05/17 12:53:31;;;;;;;13.00;2.72;;;20.50;95.40;;;;;;5097617;28;22661;-78
2021/05/17 12:56:01;;;;;;;10.30;2.33;;;20.70;94.00;;;;;;5100654;28;20040;-78
2021/05/17 12:58:34;;;;;;;11.70;2.38;;;20.90;92.80;;;;;;5107794;28;20055;-77
2021/05/17 13:01:09;;;;;;;12.45;2.88;;;20.70;91.60;;;;;;5101842;28;20043;-77
2021/05/17 13:03:40;;;;;;;9.60;2.05;;;20.60;91.50;;;;;;5100398;28;20447;-77
2021/05/17 13:06:10;;;;;;;11.98;3.22;;;20.70;91.80;;;;;;5100062;28;20040;-77
2021/05/17 13:08:53;;;;;;;10.05;2.05;;;20.80;93.20;;;;;;5099172;28;20040;-76
2021/05/17 13:11:30;;;;;;;13.18;2.85;;;20.90;93.90;;;;;;5118854;28;20488;-77
2021/05/17 13:14:05;;;;;;;10.50;2.65;;;21.30;93.30;;;;;;5101853;28;20486;-77
2021/05/17 13:16:36;;;;;;;11.85;2.55;;;21.30;92.80;;;;;;5097600;28;20055;-77
2021/05/17 13:19:34;;;;;;;12.60;2.30;;;21.30;91.90;;;;;;5095865;28;20126;-77
2021/05/17 13:30:52;;;;;;;12.98;3.08;;;21.40;92.10;;;;;;5098921;28;20036;-77
2021/05/17 13:33:27;;;;;;;13.50;2.35;;;21.10;90.80;;;;;;5082886;28;20047;-78
2021/05/17 13:35:58;;;;;;;12.73;1.92;;;21.20;89.50;;;;;;5101892;28;20038;-78
2021/05/17 13:38:30;;;;;;;13.15;2.20;;;21.30;88.90;;;;;;5098084;28;20409;-77
2021/05/17 13:41:00;;;;;;;9.35;2.50;;;21.00;90.60;;;;;;5086398;28;20036;-77